Time;durP1;ratioP1;P1;durP2;ratioP2;P2;SDS_P1;SDS_P2;PMS_P1;PMS_P2;Temp;Humidity;BMP_temperature;BMP_pressure;BME280_temperature;BME280_humidity;BME280_pressure;Samples;Min_cycle;Max_cycle;Signal;HPM_P1;HPM_P2
2023/05/04 00:00:38;;;;;;;14.63;10.23;;;;;;;7.84;76.51;102148.75;5095927;28;20020;-51
2023/05/04 00:03:04;;;;;;;14.95;10.18;;;;;;;7.84;76.60;102147.06;5096028;28;20020;-51
2023/05/04 00:05:29;;;;;;;13.93;9.77;;;;;;;7.78;76.81;102144.09;5094862;28;20030;-50
2023/05/04 00:07:54;;;;;;;14.63;9.50;;;;;;;7.76;77.52;102143.13;5095908;28;20040;-50
2023/05/04 00:10:20;;;;;;;12.38;10.10;;;;;;;7.80;76.78;102137.41;5095758;28;20030;-50
2023/05/04 00:12:46;;;;;;;14.27;9.23;;;;;;;7.84;77.28;102133.34;5095221;28;20048;-50
2023/05/04 00:15:12;;;;;;;16.40;10.35;;;;;;;7.74;77.39;102126.75;5095809;28;20166;-47
2023/05/04 00:17:37;;;;;;;15.73;9.50;;;;;;;7.69;77.88;102130.72;5095464;28;20028;-50
2023/05/04 00:20:03;;;;;;;14.82;9.27;;;;;;;7.72;77.05;102128.31;5098899;28;20031;-51
2023/05/04 00:22:28;;;;;;;12.82;8.95;;;;;;;7.71;76.68;102126.56;5115981;28;20030;-51
2023/05/04 00:24:53;;;;;;;12.32;9.40;;;;;;;7.69;77.51;102120.44;5116029;28;20094;-51
2023/05/04 00:27:18;;;;;;;12.75;9.20;;;;;;;7.69;77.55;102116.19;5114873;28;20471;-50
2023/05/04 00:29:44;;;;;;;13.43;9.40;;;;;;;7.62;77.59;102110.56;5116202;28;20030;-50
2023/05/04 00:32:09;;;;;;;14.38;9.50;;;;;;;7.57;78.22;102105.19;5115352;28;20036;-50
2023/05/04 00:34:35;;;;;;;14.32;9.25;;;;;;;7.56;78.28;102090.56;5115487;28;20062;-51
2023/05/04 00:37:00;;;;;;;17.00;9.27;;;;;;;7.55;78.32;102093.91;5116064;28;20031;-51
2023/05/04 00:39:25;;;;;;;14.38;9.60;;;;;;;7.50;78.29;102097.88;5114892;28;20111;-51
2023/05/04 00:41:51;;;;;;;14.80;9.80;;;;;;;7.48;78.55;102100.34;5115919;28;20094;-51
2023/05/04 00:44:16;;;;;;;12.32;9.48;;;;;;;7.45;79.00;102099.28;5115609;28;20459;-50
2023/05/04 00:46:41;;;;;;;13.48;9.50;;;;;;;7.46;78.82;102093.34;5114938;28;20032;-51
2023/05/04 00:49:07;;;;;;;12.18;9.07;;;;;;;7.46;78.96;102101.06;5115597;28;20353;-50
2023/05/04 00:51:33;;;;;;;10.95;8.90;;;;;;;7.51;78.90;102091.97;5115106;28;20403;-51
2023/05/04 00:53:58;;;;;;;12.65;9.07;;;;;;;7.44;78.90;102098.41;5114704;28;20042;-51
2023/05/04 00:56:24;;;;;;;13.05;9.73;;;;;;;7.40;79.15;102093.88;5115176;28;20023;-50
2023/05/04 00:58:53;;;;;;;13.52;9.18;;;;;;;7.45;79.12;102094.13;5115514;28;20027;-50
2023/05/04 01:01:20;;;;;;;14.40;9.70;;;;;;;7.37;79.56;102091.09;5114452;28;20019;-51
2023/05/04 01:03:47;;;;;;;15.60;9.40;;;;;;;7.38;79.85;102088.63;5115336;28;20077;-51
2023/05/04 01:06:54;;;;;;;13.73;10.00;;;;;;;7.36;79.61;102084.19;5115559;28;20022;-51
2023/05/04 01:09:31;;;;;;;18.27;9.70;;;;;;;7.30;80.19;102091.53;5068646;28;20048;-49
2023/05/04 01:12:17;;;;;;;12.05;9.18;;;;;;;7.29;80.49;102094.88;5115236;28;20023;-50
2023/05/04 01:14:43;;;;;;;15.17;10.27;;;;;;;7.21;80.90;102081.56;5114611;28;20028;-50
2023/05/04 01:17:10;;;;;;;13.38;9.68;;;;;;;7.19;81.27;102078.91;5115306;28;20304;-51
2023/05/04 01:19:35;;;;;;;12.63;9.75;;;;;;;7.18;81.27;102074.56;5114662;28;20034;-51
2023/05/04 01:22:01;;;;;;;12.45;9.13;;;;;;;7.10;81.30;102073.16;5114275;28;20020;-50
2023/05/04 01:24:27;;;;;;;15.65;10.18;;;;;;;7.08;81.54;102070.53;5114619;28;20107;-51
2023/05/04 01:27:10;;;;;;;15.43;10.20;;;;;;;7.02;82.57;102066.69;5114874;28;20075;-50
2023/05/04 01:29:48;;;;;;;15.13;10.57;;;;;;;6.98;83.21;102069.84;5113789;28;20506;-50
2023/05/04 01:32:14;;;;;;;15.50;9.43;;;;;;;6.94;83.12;102065.31;5114820;28;20024;-51
2023/05/04 01:34:40;;;;;;;13.65;9.95;;;;;;;6.92;83.20;102068.66;5114467;28;20023;-51
2023/05/04 01:37:06;;;;;;;15.05;10.18;;;;;;;6.91;83.69;102066.00;5113853;28;20020;-50
2023/05/04 01:39:32;;;;;;;15.30;10.35;;;;;;;6.87;84.01;102064.91;5114477;28;20387;-52
2023/05/04 01:41:57;;;;;;;13.52;9.73;;;;;;;6.88;84.61;102071.81;5114773;28;20106;-50
2023/05/04 01:44:23;;;;;;;13.02;10.38;;;;;;;6.82;84.48;102070.56;5113683;28;20066;-52
2023/05/04 01:46:48;;;;;;;16.08;10.00;;;;;;;6.70;84.63;102066.41;5114955;28;20028;-52
2023/05/04 01:49:13;;;;;;;15.77;10.13;;;;;;;6.63;85.23;102073.59;5114510;28;20440;-52
2023/05/04 01:51:39;;;;;;;16.25;10.30;;;;;;;6.62;85.71;102066.69;5113422;28;20073;-53
2023/05/04 01:54:05;;;;;;;15.70;10.70;;;;;;;6.59;85.80;102063.13;5114563;28;20474;-51
2023/05/04 01:56:30;;;;;;;14.23;10.38;;;;;;;6.51;86.53;102061.75;5114038;28;20020;-51
2023/05/04 01:58:55;;;;;;;14.80;11.20;;;;;;;6.63;86.76;102074.47;5113880;28;20032;-52
2023/05/04 02:01:20;;;;;;;14.15;10.02;;;;;;;6.55;86.55;102065.41;5113851;28;20024;-53
2023/05/04 02:03:46;;;;;;;14.30;10.30;;;;;;;6.56;86.73;102073.19;5113454;28;20106;-53
2023/05/04 02:06:11;;;;;;;16.35;10.13;;;;;;;6.50;87.13;102072.78;5113447;28;20032;-52
2023/05/04 02:08:37;;;;;;;14.32;10.55;;;;;;;6.42;87.17;102069.69;5113526;28;20055;-52
2023/05/04 02:11:02;;;;;;;17.38;10.93;;;;;;;6.41;87.43;102072.16;5113381;28;20031;-51
2023/05/04 02:13:27;;;;;;;14.98;10.82;;;;;;;6.40;87.67;102066.16;5113806;28;20016;-53
2023/05/04 02:15:53;;;;;;;14.18;10.63;;;;;;;6.39;88.04;102063.47;5114055;28;20490;-53
2023/05/04 02:18:18;;;;;;;16.58;10.32;;;;;;;6.35;87.72;102064.97;5112902;28;20063;-53
2023/05/04 02:20:43;;;;;;;14.45;10.45;;;;;;;6.33;88.32;102068.22;5113766;28;20417;-53
2023/05/04 02:23:08;;;;;;;15.80;10.52;;;;;;;6.25;88.55;102066.03;5113911;28;20103;-53
2023/05/04 02:25:34;;;;;;;13.93;10.82;;;;;;;6.24;88.94;102064.25;5113199;28;20027;-51
2023/05/04 02:27:59;;;;;;;13.13;11.02;;;;;;;6.24;89.11;102059.13;5113816;28;20067;-52
2023/05/04 02:30:25;;;;;;;16.42;11.00;;;;;;;6.21;89.33;102053.81;5113468;28;20105;-50
2023/05/04 02:32:50;;;;;;;14.73;10.50;;;;;;;6.16;89.69;102054.28;5112867;28;20080;-52
2023/05/04 02:35:15;;;;;;;15.80;10.23;;;;;;;6.12;89.96;102053.19;5113355;28;20498;-49
2023/05/04 02:37:41;;;;;;;14.00;10.95;;;;;;;6.16;89.97;102049.16;5113575;28;20027;-52
2023/05/04 02:40:07;;;;;;;16.45;11.45;;;;;;;6.07;90.01;102049.44;5112911;28;20035;-53
2023/05/04 02:42:32;;;;;;;14.40;11.10;;;;;;;6.00;90.94;102048.13;5113433;28;20026;-52
2023/05/04 02:44:58;;;;;;;15.35;11.73;;;;;;;6.04;90.85;102045.00;5113567;28;20020;-52
2023/05/04 02:47:23;;;;;;;13.98;11.48;;;;;;;5.94;91.00;102051.13;5112424;28;20038;-53
2023/05/04 02:49:48;;;;;;;15.05;11.43;;;;;;;5.95;91.30;102044.31;5113443;28;20431;-52
2023/05/04 02:52:13;;;;;;;17.30;11.80;;;;;;;5.90;92.12;102044.03;5113382;28;20023;-52
2023/05/04 02:54:39;;;;;;;15.35;11.27;;;;;;;5.93;92.02;102044.22;5112542;28;20020;-52
2023/05/04 02:57:05;;;;;;;16.13;11.02;;;;;;;5.83;92.57;102039.28;5113509;28;20027;-53
2023/05/04 02:59:30;;;;;;;15.02;11.20;;;;;;;5.77;92.79;102043.97;5113016;28;20027;-53
2023/05/04 03:01:55;;;;;;;13.32;11.02;;;;;;;5.77;92.72;102036.28;5112765;28;20031;-53
2023/05/04 03:04:21;;;;;;;15.55;11.30;;;;;;;5.79;92.84;102037.28;5113018;28;20103;-53
2023/05/04 03:06:46;;;;;;;16.38;12.10;;;;;;;5.83;93.18;102034.16;5113011;28;20048;-53
2023/05/04 03:09:12;;;;;;;14.00;11.10;;;;;;;5.76;93.11;102043.09;5112504;28;20015;-52
2023/05/04 03:11:37;;;;;;;16.77;12.48;;;;;;;5.67;93.74;102041.56;5113089;28;20077;-51
2023/05/04 03:14:02;;;;;;;13.68;11.68;;;;;;;5.63;94.07;102045.59;5112397;28;20055;-53
2023/05/04 03:16:27;;;;;;;15.35;12.07;;;;;;;5.59;94.16;102049.59;5113025;28;20015;-52
2023/05/04 03:18:53;;;;;;;13.60;11.25;;;;;;;5.56;94.38;102046.81;5116938;28;20037;-52
2023/05/04 03:21:18;;;;;;;15.55;11.95;;;;;;;5.54;95.02;102040.72;5116192;28;20028;-52
2023/05/04 03:23:43;;;;;;;15.82;12.50;;;;;;;5.52;95.18;102036.28;5117789;28;20106;-52
2023/05/04 03:26:08;;;;;;;16.42;12.05;;;;;;;5.44;95.59;102031.53;5117208;28;20035;-52
2023/05/04 03:28:34;;;;;;;15.48;12.05;;;;;;;5.42;96.01;102029.63;5116210;28;20032;-53
2023/05/04 03:30:59;;;;;;;15.93;12.10;;;;;;;5.40;95.72;102029.53;5117338;28;20020;-50
2023/05/04 03:33:24;;;;;;;17.20;12.70;;;;;;;5.49;95.55;102026.75;5116924;28;20475;-48
2023/05/04 03:35:50;;;;;;;16.55;12.15;;;;;;;5.39;96.00;102025.19;5116278;28;20387;-52
2023/05/04 03:38:15;;;;;;;17.08;12.15;;;;;;;5.40;96.53;102015.88;5116920;28;20031;-50
2023/05/04 03:40:40;;;;;;;15.90;12.88;;;;;;;5.36;96.31;102003.63;5117151;28;20053;-52
2023/05/04 03:43:06;;;;;;;17.02;11.82;;;;;;;5.36;96.32;102009.66;5116154;28;20023;-53
2023/05/04 03:45:31;;;;;;;19.40;12.75;;;;;;;5.34;96.93;102011.22;5116587;28;20019;-53
2023/05/04 03:47:57;;;;;;;17.15;12.55;;;;;;;5.40;96.34;102009.09;5117007;28;20035;-49
2023/05/04 03:50:22;;;;;;;18.20;12.52;;;;;;;5.33;96.82;102009.44;5115723;28;20376;-51
2023/05/04 03:52:48;;;;;;;14.50;11.90;;;;;;;5.32;97.11;102006.78;5116689;28;20058;-53
2023/05/04 03:55:13;;;;;;;16.63;12.60;;;;;;;5.31;97.61;102005.00;5116887;28;20031;-52
2023/05/04 03:57:38;;;;;;;15.95;12.18;;;;;;;5.34;97.58;102000.09;5115740;28;20086;-51
2023/05/04 04:00:04;;;;;;;16.95;13.25;;;;;;;5.26;98.12;102000.44;5116610;28;20031;-53
2023/05/04 04:02:30;;;;;;;16.75;12.85;;;;;;;5.30;98.13;102003.25;5116320;28;20038;-52
2023/05/04 04:04:55;;;;;;;18.90;13.95;;;;;;;5.20;98.39;102005.16;5115715;28;20367;-50
2023/05/04 04:07:21;;;;;;;18.98;12.18;;;;;;;5.25;98.31;102008.94;5115884;28;20040;-50
2023/05/04 04:09:46;;;;;;;16.17;12.90;;;;;;;5.26;98.81;102012.34;5116291;28;20031;-50
2023/05/04 04:12:11;;;;;;;16.77;12.50;;;;;;;5.32;98.89;102002.56;5115751;28;20027;-49
2023/05/04 04:14:37;;;;;;;16.63;12.90;;;;;;;5.27;98.93;102012.47;5116195;28;20494;-50
2023/05/04 04:17:02;;;;;;;17.23;13.18;;;;;;;5.23;99.25;102001.94;5116342;28;20047;-50
2023/05/04 04:19:27;;;;;;;15.98;12.57;;;;;;;5.25;99.12;102002.91;5115022;28;20383;-49
2023/05/04 04:21:52;;;;;;;18.02;13.27;;;;;;;5.26;99.25;102003.00;5116341;28;20097;-52
2023/05/04 04:24:18;;;;;;;20.38;13.68;;;;;;;5.29;99.32;101999.78;5115141;28;20034;-51
2023/05/04 04:26:43;;;;;;;16.90;13.98;;;;;;;5.31;99.38;101997.31;5116103;28;20020;-53
2023/05/04 04:29:09;;;;;;;18.27;14.35;;;;;;;5.31;99.90;101992.22;5115289;28;20020;-51
2023/05/04 04:31:34;;;;;;;18.15;13.88;;;;;;;5.28;99.77;101995.47;5115040;28;20118;-52
2023/05/04 04:33:59;;;;;;;15.80;13.85;;;;;;;5.36;99.88;101993.41;5115908;28;20019;-52
2023/05/04 04:36:25;;;;;;;18.10;14.63;;;;;;;5.37;99.61;101991.00;5115494;28;20384;-52
2023/05/04 04:38:51;;;;;;;19.05;16.02;;;;;;;5.42;99.90;101988.72;5115211;28;20081;-51
2023/05/04 04:41:16;;;;;;;21.02;15.38;;;;;;;5.45;99.88;101986.41;5115432;28;20436;-52
2023/05/04 04:43:42;;;;;;;17.33;13.57;;;;;;;5.49;99.74;101990.94;5115844;28;20023;-52
2023/05/04 04:46:08;;;;;;;17.80;13.93;;;;;;;5.52;99.74;101996.25;5114996;28;20026;-52
2023/05/04 04:48:33;;;;;;;18.95;13.45;;;;;;;5.59;99.80;101995.91;5115583;28;20015;-52
2023/05/04 04:50:58;;;;;;;19.98;13.20;;;;;;;5.61;99.64;101993.44;5115558;28;20099;-52
2023/05/04 04:53:24;;;;;;;20.13;13.27;;;;;;;5.65;99.01;101984.31;5114778;28;20381;-52
2023/05/04 04:55:49;;;;;;;20.23;13.32;;;;;;;5.70;99.32;101982.97;5115680;28;20050;-51
2023/05/04 04:58:15;;;;;;;17.77;13.43;;;;;;;5.74;98.96;101983.25;5115375;28;20035;-52
2023/05/04 05:00:40;;;;;;;16.10;13.07;;;;;;;5.77;98.74;101985.13;5114609;28;20028;-51
2023/05/04 05:03:05;;;;;;;16.83;13.48;;;;;;;5.78;99.02;101986.91;5115627;28;20016;-52
2023/05/04 05:05:31;;;;;;;17.70;12.77;;;;;;;5.82;98.81;101990.56;5114955;28;20030;-52
2023/05/04 05:07:56;;;;;;;18.92;13.00;;;;;;;5.85;98.65;101988.19;5114288;28;20130;-51
2023/05/04 05:10:22;;;;;;;18.30;14.02;;;;;;;5.87;98.67;101990.06;5115157;28;20020;-52
2023/05/04 05:12:49;;;;;;;18.85;13.75;;;;;;;5.93;98.30;101994.75;5115282;28;20023;-48
2023/05/04 05:15:15;;;;;;;;;;;;;;;6.01;96.81;101996.16;5114882;28;20020;-50
2023/05/04 05:17:40;;;;;;;16.45;13.30;;;;;;;6.06;97.90;101994.78;5115131;28;19912;-51
2023/05/04 05:20:09;;;;;;;17.90;13.32;;;;;;;6.13;98.26;101998.63;5114942;28;20047;-53
2023/05/04 05:22:35;;;;;;;23.15;13.02;;;;;;;6.15;97.60;101994.53;5113883;28;20497;-53
2023/05/04 05:25:00;;;;;;;16.65;12.88;;;;;;;6.20;97.39;101990.59;5115066;28;20040;-51
2023/05/04 05:27:26;;;;;;;16.02;11.90;;;;;;;6.24;97.25;101987.44;5114669;28;20034;-50
2023/05/04 05:29:51;;;;;;;15.77;12.43;;;;;;;6.31;97.15;101992.97;5114198;28;20364;-50
2023/05/04 05:32:17;;;;;;;17.30;12.38;;;;;;;6.38;97.07;101995.16;5114567;28;20030;-49
2023/05/04 05:34:42;;;;;;;19.20;12.95;;;;;;;6.47;97.21;102000.88;5113936;28;20028;-50
2023/05/04 05:37:07;;;;;;;20.02;13.15;;;;;;;6.55;96.66;102002.25;5114848;28;20020;-53
2023/05/04 05:39:33;;;;;;;18.40;12.68;;;;;;;6.64;96.70;101998.50;5114527;28;20344;-52
2023/05/04 05:41:58;;;;;;;15.20;12.35;;;;;;;6.74;96.50;101995.75;5112979;28;20035;-52
2023/05/04 05:44:23;;;;;;;15.43;12.13;;;;;;;6.87;95.52;101998.28;5114176;28;20068;-53
2023/05/04 05:46:49;;;;;;;15.48;12.70;;;;;;;6.95;94.49;101991.09;5114526;28;20019;-53
2023/05/04 05:49:14;;;;;;;16.58;12.05;;;;;;;7.02;94.01;101990.69;5113636;28;20062;-52
2023/05/04 05:51:40;;;;;;;14.80;11.95;;;;;;;7.16;94.65;101990.66;5114319;28;20031;-51
2023/05/04 05:54:06;;;;;;;16.50;11.43;;;;;;;7.27;93.15;101989.66;5114307;28;20032;-49
2023/05/04 05:56:31;;;;;;;19.88;11.85;;;;;;;7.35;92.60;101990.13;5113427;28;20068;-51
2023/05/04 05:58:56;;;;;;;15.10;11.55;;;;;;;7.43;92.07;101991.44;5114239;28;20039;-50
2023/05/04 06:01:22;;;;;;;15.52;11.40;;;;;;;7.47;91.62;101989.97;5114133;28;20053;-50
2023/05/04 06:03:47;;;;;;;19.63;11.57;;;;;;;7.57;92.48;101985.47;5113357;28;20026;-51
2023/05/04 06:06:14;;;;;;;19.42;11.73;;;;;;;7.67;93.22;101978.31;5114324;28;20031;-50
2023/05/04 06:08:40;;;;;;;15.35;11.13;;;;;;;7.72;91.36;101979.47;5113606;28;20039;-50
2023/05/04 06:11:05;;;;;;;19.10;11.73;;;;;;;7.83;91.09;101973.31;5113277;28;20467;-51
2023/05/04 06:13:31;;;;;;;15.25;11.13;;;;;;;7.94;90.87;101967.91;5113547;28;20111;-50
2023/05/04 06:15:56;;;;;;;14.55;10.75;;;;;;;7.99;90.60;101964.84;5114011;28;20089;-49
2023/05/04 06:18:22;;;;;;;18.02;11.23;;;;;;;8.00;89.88;101970.84;5112770;28;20032;-51
2023/05/04 06:20:47;;;;;;;15.63;10.25;;;;;;;8.15;89.61;101958.03;5113944;28;20023;-50
2023/05/04 06:23:13;;;;;;;14.20;10.55;;;;;;;8.26;89.27;101956.06;5114010;28;20027;-51
2023/05/04 06:25:39;;;;;;;16.00;10.98;;;;;;;8.31;87.66;101954.63;5112739;28;20020;-50
2023/05/04 06:28:05;;;;;;;15.63;10.50;;;;;;;8.45;88.49;101951.16;5113755;28;20023;-50
2023/05/04 06:30:30;;;;;;;14.38;10.30;;;;;;;8.63;87.58;101945.31;5113309;28;20041;-50
2023/05/04 06:32:55;;;;;;;18.60;10.02;;;;;;;8.65;87.06;101943.69;5112863;28;20023;-50
2023/05/04 06:35:21;;;;;;;15.52;10.57;;;;;;;8.77;86.76;101953.78;5113614;28;20015;-50
2023/05/04 06:37:46;;;;;;;12.40;9.27;;;;;;;8.85;85.41;101945.66;5113701;28;20386;-50
2023/05/04 06:40:12;;;;;;;13.82;9.68;;;;;;;9.08;85.86;101933.19;5112805;28;20050;-56
2023/05/04 06:42:37;;;;;;;14.90;10.27;;;;;;;9.17;85.62;101940.50;5113130;28;20057;-50
2023/05/04 06:45:03;;;;;;;12.57;9.30;;;;;;;9.28;84.60;101941.91;5112702;28;20035;-51
2023/05/04 06:47:28;;;;;;;17.30;9.55;;;;;;;9.40;84.10;101941.72;5113093;28;20110;-49
2023/05/04 06:49:53;;;;;;;13.20;8.82;;;;;;;9.42;83.36;101939.22;5113519;28;20051;-50
2023/05/04 06:52:19;;;;;;;15.73;9.13;;;;;;;9.49;82.09;101942.19;5112035;28;20467;-47
2023/05/04 06:54:45;;;;;;;16.55;9.30;;;;;;;9.51;81.78;101935.41;5113469;28;20027;-50
2023/05/04 06:57:10;;;;;;;13.32;8.55;;;;;;;9.59;80.63;101934.91;5113397;28;20104;-50
2023/05/04 06:59:35;;;;;;;12.40;8.48;;;;;;;9.66;81.11;101937.00;5112148;28;20081;-49
2023/05/04 07:02:01;;;;;;;13.10;9.20;;;;;;;9.82;82.08;101938.66;5113256;28;20023;-54
2023/05/04 07:04:26;;;;;;;14.80;8.90;;;;;;;9.89;81.64;101935.59;5112824;28;20026;-51
2023/05/04 07:06:51;;;;;;;15.13;8.90;;;;;;;10.07;81.05;101930.47;5112192;28;20031;-51
2023/05/04 07:09:20;;;;;;;12.55;8.50;;;;;;;10.07;79.60;101933.06;5113041;28;20045;-51
2023/05/04 07:11:47;;;;;;;13.40;8.30;;;;;;;10.06;78.36;101928.69;5113358;28;20094;-51
2023/05/04 07:14:13;;;;;;;11.48;7.65;;;;;;;10.20;79.31;101924.22;5112389;28;20099;-51
2023/05/04 07:16:38;;;;;;;13.88;8.25;;;;;;;10.20;78.89;101912.22;5112807;28;20070;-52
2023/05/04 07:19:03;;;;;;;15.50;8.55;;;;;;;10.32;79.92;101911.03;5113251;28;20047;-52
2023/05/04 07:21:29;;;;;;;12.90;7.93;;;;;;;10.46;79.38;101910.03;5112203;28;20024;-50
2023/05/04 07:23:55;;;;;;;11.32;8.00;;;;;;;10.64;77.69;101909.09;5113193;28;20111;-52
2023/05/04 07:26:21;;;;;;;14.77;7.93;;;;;;;10.86;77.96;101904.13;5112817;28;20042;-52
2023/05/04 07:28:46;;;;;;;12.23;8.00;;;;;;;11.15;77.79;101903.69;5112326;28;20384;-51
2023/05/04 07:31:11;;;;;;;13.82;8.10;;;;;;;11.13;74.66;101902.72;5112938;28;20023;-51
2023/05/04 07:33:37;;;;;;;12.05;7.68;;;;;;;11.23;75.16;101901.44;5112880;28;20626;-50
2023/05/04 07:36:02;;;;;;;9.85;7.68;;;;;;;11.31;73.71;101897.47;5112294;28;20468;-48
2023/05/04 07:38:28;;;;;;;11.65;7.82;;;;;;;11.53;74.23;101899.31;5112489;28;20039;-50
2023/05/04 07:40:54;;;;;;;14.13;8.05;;;;;;;11.69;72.97;101893.06;5113007;28;20027;-46
2023/05/04 07:43:20;;;;;;;11.15;7.55;;;;;;;11.76;71.61;101892.53;5111938;28;20103;-51
2023/05/04 07:45:45;;;;;;;11.32;6.93;;;;;;;11.98;71.04;101896.91;5113007;28;20157;-52
2023/05/04 07:48:10;;;;;;;14.30;7.43;;;;;;;11.98;68.83;101898.59;5112517;28;20387;-49
2023/05/04 07:50:36;;;;;;;10.60;7.43;;;;;;;12.15;69.28;101892.41;5112082;28;20467;-50
2023/05/04 07:53:02;;;;;;;12.80;7.10;;;;;;;12.28;69.15;101895.50;5112954;28;20478;-51
2023/05/04 07:55:28;;;;;;;12.43;7.35;;;;;;;12.50;67.42;101898.06;5111712;28;20431;-51
2023/05/04 07:57:53;;;;;;;14.40;7.65;;;;;;;12.66;66.78;101889.19;5112719;28;20102;-51
2023/05/04 08:00:20;;;;;;;12.18;8.07;;;;;;;12.84;67.46;101889.00;5112523;28;20119;-51
2023/05/04 08:02:45;;;;;;;11.80;7.63;;;;;;;12.96;66.40;101891.19;5112000;28;20047;-52
2023/05/04 08:05:10;;;;;;;12.18;7.60;;;;;;;13.10;65.63;101891.66;5115363;28;20107;-52
2023/05/04 08:07:36;;;;;;;13.32;7.38;;;;;;;13.12;64.04;101892.59;5115962;28;20044;-51
2023/05/04 08:10:02;;;;;;;12.77;7.75;;;;;;;13.18;64.07;101884.16;5115824;28;20032;-52
2023/05/04 08:12:27;;;;;;;10.15;7.07;;;;;;;13.36;63.81;101878.75;5116087;28;20020;-52
2023/05/04 08:14:53;;;;;;;13.73;7.43;;;;;;;13.60;65.81;101875.28;5116263;28;20030;-52
2023/05/04 08:17:18;;;;;;;15.82;7.50;;;;;;;13.70;63.31;101874.75;5115134;28;20023;-52
2023/05/04 08:19:43;;;;;;;11.57;7.28;;;;;;;13.96;61.95;101870.41;5116313;28;20376;-52
2023/05/04 08:22:09;;;;;;;12.75;7.55;;;;;;;14.11;60.46;101874.31;5116240;28;20034;-52
2023/05/04 08:24:35;;;;;;;10.85;7.43;;;;;;;14.28;61.57;101867.97;5114988;28;20076;-52
2023/05/04 08:27:01;;;;;;;16.52;7.68;;;;;;;14.47;61.94;101864.22;5116047;28;20016;-52
2023/05/04 08:29:27;;;;;;;14.48;7.72;;;;;;;14.49;60.47;101859.94;5115818;28;20026;-52
2023/05/04 08:31:54;;;;;;;12.13;7.65;;;;;;;14.47;59.59;101856.44;5115131;28;20495;-51
2023/05/04 08:34:20;;;;;;;;;;;;;;;14.71;63.55;101858.00;5116188;28;20032;-51
2023/05/04 08:36:45;;;;;;;9.70;7.30;;;;;;;14.81;59.15;101867.81;5116097;28;19918;-52
2023/05/04 08:39:11;;;;;;;12.00;7.70;;;;;;;14.72;56.36;101857.19;5115284;28;20290;-51
2023/05/04 08:41:40;;;;;;;13.77;7.63;;;;;;;14.83;58.06;101854.88;5115412;28;20102;-50
2023/05/04 08:44:08;;;;;;;11.93;7.50;;;;;;;14.98;56.56;101849.25;5115737;28;20406;-52
2023/05/04 08:46:33;;;;;;;9.43;7.05;;;;;;;15.16;57.43;101846.28;5114859;28;20027;-52
2023/05/04 08:48:58;;;;;;;12.77;7.63;;;;;;;15.23;55.31;101850.78;5115838;28;20376;-52
2023/05/04 08:51:24;;;;;;;12.60;7.53;;;;;;;15.47;57.21;101834.94;5115473;28;20031;-51
2023/05/04 08:53:50;;;;;;;16.27;7.70;;;;;;;15.44;54.07;101831.38;5114848;28;20026;-51
2023/05/04 08:56:17;;;;;;;14.00;6.93;;;;;;;15.69;55.54;101821.63;5115224;28;20068;-52
2023/05/04 08:58:48;;;;;;;14.15;7.43;;;;;;;15.75;52.72;101820.03;5114560;28;20031;-52
2023/05/04 09:01:15;;;;;;;12.48;7.53;;;;;;;15.83;51.28;101817.66;5115545;28;20027;-51
2023/05/04 09:03:43;;;;;;;12.15;7.28;;;;;;;15.83;52.30;101811.56;5115516;28;20035;-52
2023/05/04 09:06:10;;;;;;;11.18;7.45;;;;;;;16.06;53.72;101797.38;5114687;28;20035;-52
2023/05/04 09:08:35;;;;;;;11.32;7.60;;;;;;;15.98;51.31;101801.53;5114813;28;20047;-52
2023/05/04 09:11:01;;;;;;;10.18;7.13;;;;;;;16.10;51.72;101801.81;5115312;28;20111;-51
2023/05/04 09:13:27;;;;;;;10.95;7.35;;;;;;;16.08;51.48;101802.63;5114070;28;20097;-51
2023/05/04 09:15:54;;;;;;;10.52;7.30;;;;;;;16.12;51.73;101802.69;5115238;28;20065;-51
2023/05/04 09:18:20;;;;;;;12.00;7.50;;;;;;;16.04;49.50;101808.59;5114811;28;20030;-51
2023/05/04 09:20:46;;;;;;;10.48;7.68;;;;;;;16.31;50.22;101803.13;5114198;28;20094;-51
2023/05/04 09:23:13;;;;;;;15.55;7.68;;;;;;;16.44;50.43;101806.84;5115139;28;20039;-52
2023/05/04 09:25:48;;;;;;;10.48;7.22;;;;;;;16.60;50.57;101800.22;5114566;28;20027;-51
2023/05/04 09:28:14;;;;;;;13.60;7.80;;;;;;;16.71;50.81;101795.25;5114317;28;20100;-52
2023/05/04 09:30:40;;;;;;;12.30;7.70;;;;;;;17.07;50.69;101795.06;5114527;28;20471;-52
2023/05/04 09:33:05;;;;;;;11.05;7.78;;;;;;;17.23;48.99;101796.22;5114712;28;20031;-52
2023/05/04 09:35:31;;;;;;;11.52;7.35;;;;;;;17.56;47.99;101800.25;5113516;28;20032;-52
2023/05/04 09:37:56;;;;;;;11.90;7.95;;;;;;;17.40;48.05;101798.22;5114553;28;20027;-52
2023/05/04 09:40:34;;;;;;;14.23;8.45;;;;;;;17.42;47.31;101789.59;5114211;28;20059;-50
2023/05/04 09:42:59;;;;;;;14.02;7.72;;;;;;;17.47;47.01;101788.78;5113967;28;20024;-51
2023/05/04 09:45:26;;;;;;;11.45;7.30;;;;;;;17.73;47.78;101782.25;5114095;28;20023;-51
2023/05/04 09:47:53;;;;;;;9.65;6.97;;;;;;;17.80;46.45;101777.13;5113616;28;20467;-52
2023/05/04 09:50:25;;;;;;;12.40;7.38;;;;;;;18.01;45.51;101790.50;5114251;28;20027;-52
2023/05/04 09:52:52;;;;;;;9.18;6.95;;;;;;;18.46;45.09;101774.53;5114403;28;20027;-52
2023/05/04 09:55:19;;;;;;;12.85;7.50;;;;;;;18.47;45.09;101773.69;5113456;28;20037;-51
2023/05/04 09:57:46;;;;;;;12.50;7.90;;;;;;;19.17;44.83;101775.28;5114524;28;20026;-51
2023/05/04 10:00:14;;;;;;;13.07;7.97;;;;;;;19.00;43.80;101775.16;5114249;28;20055;-51
2023/05/04 10:02:41;;;;;;;13.13;7.75;;;;;;;19.33;44.17;101771.97;5113450;28;20494;-52
2023/05/04 10:05:08;;;;;;;14.73;7.13;;;;;;;20.44;43.40;101766.50;5114283;28;20099;-52
2023/05/04 10:07:33;;;;;;;13.20;7.63;;;;;;;20.79;41.12;101762.28;5113558;28;20062;-51
2023/05/04 10:09:59;;;;;;;13.32;7.40;;;;;;;21.52;39.06;101755.25;5113586;28;20367;-51
2023/05/04 10:12:24;;;;;;;13.95;7.38;;;;;;;21.65;39.05;101743.94;5113928;28;20379;-52
2023/05/04 10:14:50;;;;;;;14.23;7.90;;;;;;;22.93;36.83;101742.47;5114152;28;20046;-52
2023/05/04 10:17:50;;;;;;;11.18;7.90;;;;;;;23.56;38.42;101727.88;5112961;28;20387;-53
2023/05/04 10:20:40;;;;;;;9.90;7.55;;;;;;;23.57;34.59;101734.88;5113772;28;20034;-51
2023/05/04 10:23:44;;;;;;;13.10;8.20;;;;;;;23.29;35.10;101735.16;5113205;28;20027;-51
2023/05/04 10:26:28;;;;;;;12.32;8.15;;;;;;;22.77;35.80;101723.28;5113567;28;20387;-51
2023/05/04 10:29:06;;;;;;;12.05;7.55;;;;;;;23.49;35.83;101723.56;5113770;28;20024;-51
2023/05/04 10:31:41;;;;;;;;;;;;;;;23.81;36.75;101717.09;5113289;28;20024;-51
2023/05/04 10:34:07;;;;;;;11.68;7.22;;;;;;;23.59;33.78;101705.91;5113754;28;19911;-51
2023/05/04 10:36:41;;;;;;;15.18;7.43;;;;;;;23.76;34.41;101697.84;5113285;28;20070;-52
2023/05/04 10:39:23;;;;;;;17.00;7.70;;;;;;;24.15;34.75;101695.63;5113029;28;20028;-52
2023/05/04 10:42:14;;;;;;;11.93;7.13;;;;;;;25.01;33.48;101684.66;5113847;28;20027;-53
2023/05/04 10:44:55;;;;;;;12.20;7.55;;;;;;;24.74;33.15;101684.22;5108374;28;20413;-51
2023/05/04 10:47:32;;;;;;;13.05;6.82;;;;;;;25.20;32.98;101672.03;5113305;28;20030;-52
2023/05/04 10:50:04;;;;;;;13.75;7.18;;;;;;;24.82;32.29;101672.66;5113553;28;20039;-52
2023/05/04 10:52:31;;;;;;;11.70;6.82;;;;;;;24.83;31.19;101663.00;5112572;28;20023;-53
2023/05/04 10:55:00;;;;;;;10.47;7.23;;;;;;;24.77;31.44;101647.28;5113653;28;20023;-52
2023/05/04 10:57:27;;;;;;;12.88;6.60;;;;;;;25.79;31.04;101643.59;5112946;28;20038;-52
2023/05/04 10:59:56;;;;;;;;;;;;;;;26.56;30.29;101643.63;5113091;28;20101;-52
2023/05/04 11:02:25;;;;;;;8.30;5.38;;;;;;;26.38;29.76;101638.81;5113163;28;19912;-52
2023/05/04 11:05:19;;;;;;;8.95;5.85;;;;;;;26.83;30.24;101635.06;5113369;28;20020;-51
2023/05/04 11:07:45;;;;;;;8.07;5.80;;;;;;;26.25;28.22;101631.16;5109873;28;20122;-53
2023/05/04 11:10:24;;;;;;;10.32;5.82;;;;;;;27.02;29.00;101625.72;5113416;28;20510;-53
2023/05/04 11:12:50;;;;;;;8.50;6.00;;;;;;;26.14;28.05;101619.97;5112391;28;20528;-52
2023/05/04 11:15:15;;;;;;;16.02;6.43;;;;;;;26.34;28.64;101626.53;5113046;28;20059;-52
2023/05/04 11:17:48;;;;;;;9.80;5.22;;;;;;;26.96;29.67;101620.63;5113195;28;20047;-53